Overview Statistics Trail Chart Weather Telemetry Raw packets
 

This is the latest recevied weather packets stored in our database for station/object UHMM. If no packets are shown the sender has not sent any weather packets the latest 10 day(s).

<< 13 14 15 16 17 >>
Time Temp. Humidity Pressure Rain* Wind** Luminosity Snow
1777446008 1.67° C 51% 1007 hPa - - - -
1777444208 0.56° C 55% 1007 hPa - - - -
1777442408 1.67° C 51% 1007 hPa - - - -
1777440609 2.78° C 40% 1007 hPa - - - -
1777438809 1.67° C 47% 1007 hPa - - - -
1777437010 2.78° C 40% 1007 hPa - - - -
1777435208 1.67° C 40% 1007 hPa - - - -
1777431609 1.67° C 40% 1008 hPa - - - -
1777429811 1.67° C 40% 1008 hPa - - - -
1777428008 0.56° C 40% 1008 hPa - - - -
1777424408 0.56° C 43% 1008 hPa - - - -
1777422610 0° C 46% 1008 hPa - - - -
1777420809 0° C 46% 1008 hPa - - - -
1777419009 0° C 46% 1008 hPa - - - -
1777417209 0° C 46% 1009 hPa - - - -
1777415409 -1.11° C 50% 1009 hPa - - - -
1777411808 -2.22° C 58% 1009 hPa - - - -
1777410008 -4.44° C 68% 1009 hPa - - - -
1777408211 -4.44° C 68% 1009 hPa - - - -
1777406410 -6.11° C 79% 1009 hPa - - - -
1777404611 -6.11° C 79% 1009 hPa - - - -
1777401008 -7.22° C 92% 1009 hPa - - - -
1777399212 -7.22° C 92% 1009 hPa - - - -
1777397409 -7.22° C 92% 1009 hPa - - - -
1777395609 -6.11° C 85% 1009 hPa - - - -

* Rain since midnight (hover to see other rain measurements)
** Current wind speed in m/s (hover to see current wind gust speed)